»·PEaware :: N8671J KOTH-KONP

N8671J :: KOTH-KONP

FLIGHT INFORMATION

Flight Status: Arrived
Operator: Privately registered:
United States
More flights under this callsign
Pilot: Mike D. (17473)
Aircraft: PIPER PA-44 SEMINOLE
(PA44)
More flights by this aircraft type
Origin: KOTH North Bend Mun
United States
Destination: KONP Newport Mun
United States
More flights between these airports :: More routes between these airports
Route: OTH6 GAMMA ONP
File this flight plan on PilotEdge
Remarks:
Altitude:
(Current/Filed)
6,000ft
Speed:
(Current/Filed)
155kts
Departed: 15-May-18 06:03 PM
Arrived: 15-May-18 06:51 PM
Distance/Time
Traveled:
70nm/0:48
Distance/Time
To Go:
Arrived

Flight Plot

Page will automatically refresh every two minutes.

Flight plan parsing failed; only flown route is shown


Map Options




Map Legend


Flown Route
Filed Route
Departure Airport
Arrival Airport
Navaid (VOR, NDB)
Fix

Horizontal Profiles

Position Reports

Time Latitude Longitude Heading Altitude Ground
Speed
15-May-18 17:52 43.416446 -124.246055 330 22ft 0kts
15-May-18 17:53 43.416446 -124.246055 330 22ft 0kts
15-May-18 17:54 43.416446 -124.246055 330 22ft 0kts
15-May-18 17:55 43.416446 -124.246055 330 22ft 0kts
15-May-18 17:56 43.416446 -124.246055 330 22ft 0kts
15-May-18 17:57 43.416485 -124.246085 333 22ft 4kts
15-May-18 17:58 43.418238 -124.246404 330 22ft 13kts
15-May-18 17:59 43.420954 -124.242306 61 22ft 17kts
15-May-18 18:00 43.421967 -124.240553 332 22ft 0kts
15-May-18 18:01 43.421967 -124.240553 332 22ft 0kts
15-May-18 18:02 43.422645 -124.241269 257 22ft 7kts
15-May-18 18:03 43.416586 -124.262459 255 988ft 79kts
15-May-18 18:04 43.425122 -124.291513 2 1935ft 132kts
15-May-18 18:05 43.432477 -124.250775 105 3281ft 124kts
15-May-18 18:06 43.418057 -124.204763 103 4189ft 140kts
15-May-18 18:07 43.433016 -124.166133 5 5105ft 125kts
15-May-18 18:08 43.464301 -124.145489 36 5954ft 131kts
15-May-18 18:09 43.503599 -124.145407 352 6002ft 156kts
15-May-18 18:10 43.547976 -124.147442 358 5999ft 162kts
15-May-18 18:11 43.593211 -124.147075 358 6002ft 163kts
15-May-18 18:12 43.638556 -124.146108 0 5999ft 163kts
15-May-18 18:13 43.683878 -124.143393 0 5999ft 163kts
15-May-18 18:14 43.729144 -124.140767 0 5997ft 163kts
15-May-18 18:15 43.774686 -124.138635 0 5990ft 165kts
15-May-18 18:16 43.820775 -124.134014 3 5990ft 166kts
15-May-18 18:17 43.866735 -124.126775 5 5988ft 168kts
15-May-18 18:18 43.914428 -124.120946 5 5991ft 174kts
15-May-18 18:19 43.962922 -124.116213 4 5991ft 175kts
15-May-18 18:20 44.011602 -124.112897 3 5991ft 175kts
15-May-18 18:21 44.060416 -124.109874 3 5991ft 175kts
15-May-18 18:22 44.107105 -124.107029 3 5990ft 175kts
15-May-18 18:23 44.155568 -124.102631 5 5990ft 175kts
15-May-18 18:24 44.203979 -124.097276 6 5990ft 175kts
15-May-18 18:25 44.252638 -124.091452 5 5990ft 175kts
15-May-18 18:26 44.300957 -124.086216 5 5999ft 175kts
15-May-18 18:27 44.348905 -124.081018 5 5998ft 168kts
15-May-18 18:28 44.394507 -124.077179 3 5999ft 162kts
15-May-18 18:29 44.439042 -124.074542 3 5998ft 157kts
15-May-18 18:30 44.481662 -124.071140 6 5998ft 150kts
15-May-18 18:31 44.522230 -124.065945 6 5999ft 144kts
15-May-18 18:32 44.560772 -124.061608 3 5999ft 136kts
15-May-18 18:33 44.597322 -124.061359 353 5724ft 134kts
15-May-18 18:34 44.634984 -124.068752 352 5131ft 138kts
15-May-18 18:35 44.673563 -124.068481 4 4513ft 141kts
15-May-18 18:36 44.713513 -124.067895 356 3720ft 146kts
15-May-18 18:37 44.753852 -124.070806 348 2920ft 145kts
15-May-18 18:38 44.782004 -124.104174 313 2598ft 122kts
15-May-18 18:39 44.805066 -124.137655 308 2600ft 117kts
15-May-18 18:40 44.830592 -124.163578 10 2595ft 122kts
15-May-18 18:41 44.829917 -124.131053 154 2601ft 108kts
15-May-18 18:42 44.808563 -124.100508 132 2600ft 111kts
15-May-18 18:43 44.785377 -124.073614 168 2598ft 107kts
15-May-18 18:44 44.754596 -124.069338 178 2319ft 115kts
15-May-18 18:45 44.723346 -124.067024 180 2098ft 105kts
15-May-18 18:46 44.695187 -124.065869 180 2099ft 99kts
15-May-18 18:47 44.667410 -124.064567 180 1748ft 100kts
15-May-18 18:48 44.640009 -124.062749 181 1227ft 92kts
15-May-18 18:49 44.615552 -124.061176 179 759ft 86kts
15-May-18 18:50 44.592286 -124.059680 181 316ft 78kts
15-May-18 18:51 44.579865 -124.058934 172 165ft 16kts
15-May-18 18:52 44.576599 -124.061953 216 165ft 12kts

Navigation Log

Ident Type
Flight plan parsing failed, navigation log unavailable